.
WxDataArchive / Data Records for 2013-01-18
2013-01-17 January 2013 2013-01-19

Data Records for Friday, 18 January 2013

Time	Temp	Chill	HIndex	Humid	Dewpt	 Wind 	HiWind	WindDir	Rain 	Barom 
-----	----	-----	------	-----	-----	------	------	-------	-----	----- 
00:00	21.4	21.4	21.4	71	13.5	0	1	292	0.00	30.381 
00:05	21.4	21.4	21.4	70	13.2	1	3	270	0.00	30.381 
00:10	21.6	21.6	21.6	70	13.4	0	2	270	0.00	30.381 
00:15	21.6	21.6	21.6	69	13.0	0	2	270	0.00	30.384 
00:20	21.8	21.8	21.8	69	13.2	1	3	270	0.00	30.384 
00:25	21.8	21.8	21.8	69	13.2	1	3	270	0.00	30.384 
00:30	21.8	21.8	21.8	69	13.2	0	3	270	0.00	30.388 
00:35	21.8	21.8	21.8	69	13.2	1	4	270	0.00	30.388 
00:40	21.6	21.6	21.6	68	12.7	0	3	270	0.00	30.388 
00:45	21.4	21.4	21.4	68	12.5	1	3	270	0.00	30.392 
00:50	21.3	21.3	21.3	69	12.7	0	3	270	0.00	30.392 
00:55	21.3	21.3	21.3	69	12.7	0	3	270	0.00	30.392 
01:00	21.3	21.3	21.3	69	12.7	0	2	248	0.00	30.398 
01:05	21.1	21.1	21.1	69	12.5	0	2	248	0.00	30.398 
01:10	21.1	21.1	21.1	69	12.5	0	1	248	0.00	30.398 
01:15	21.1	21.1	21.1	69	12.5	0	2	248	0.00	30.405 
01:20	21.1	21.1	21.1	69	12.5	0	2	248	0.00	30.405 
01:25	21.1	21.1	21.1	70	12.9	0	2	270	0.00	30.405 
01:30	21.1	21.1	21.1	70	12.9	1	2	270	0.00	30.404 
01:35	21.3	21.3	21.3	70	13.1	1	3	270	0.00	30.404 
01:40	21.4	21.4	21.4	69	12.8	1	4	270	0.00	30.404 
01:45	21.4	21.4	21.4	69	12.8	0	2	270	0.00	30.405 
01:50	21.6	21.6	21.6	69	13.0	1	4	248	0.00	30.405 
01:55	21.8	21.8	21.8	69	13.2	1	3	248	0.00	30.405 
02:00	21.8	21.8	21.8	69	13.2	0	3	248	0.00	30.421 
02:05	21.9	21.9	21.9	69	13.3	1	3	248	0.00	30.421 
02:10	22.1	22.1	22.1	69	13.5	1	3	248	0.00	30.421 
02:15	22.1	22.1	22.1	69	13.5	1	3	248	0.00	30.429 
02:20	22.1	22.1	22.1	69	13.5	1	3	248	0.00	30.429 
02:25	22.1	22.1	22.1	69	13.5	0	2	248	0.00	30.429 
02:30	22.1	22.1	22.1	69	13.5	0	2	248	0.00	30.433 
02:35	21.9	21.9	21.9	69	13.3	0	2	248	0.00	30.433 
02:40	21.8	21.8	21.8	69	13.2	1	3	248	0.00	30.433 
02:45	21.6	21.6	21.6	69	13.0	0	3	248	0.00	30.437 
02:50	21.4	21.4	21.4	69	12.8	0	2	248	0.00	30.437 
02:55	21.4	21.4	21.4	69	12.8	0	2	248	0.00	30.437 
03:00	21.4	21.4	21.4	69	12.8	0	2	248	0.00	30.443 
03:05	21.3	21.3	21.3	69	12.7	0	2	248	0.00	30.443 
03:10	21.3	21.3	21.3	69	12.7	0	2	248	0.00	30.443 
03:15	21.1	21.1	21.1	69	12.5	0	1	248	0.00	30.447 
03:20	21.1	21.1	21.1	69	12.5	0	1	248	0.00	30.447 
03:25	21.0	21.0	21.0	69	12.5	0	2	248	0.00	30.447 
03:30	21.0	21.0	21.0	69	12.5	0	1	248	0.00	30.441 
03:35	20.8	20.8	20.8	69	12.3	0	3	248	0.00	30.441 
03:40	20.8	20.8	20.8	69	12.3	0	2	248	0.00	30.441 
03:45	20.8	20.8	20.8	69	12.3	0	2	248	0.00	30.442 
03:50	20.8	20.8	20.8	69	12.3	0	2	248	0.00	30.442 
03:55	20.8	20.8	20.8	69	12.3	0	3	248	0.00	30.442 
04:00	20.6	20.6	20.6	69	12.1	0	2	248	0.00	30.442 
04:05	20.6	20.6	20.6	69	12.1	0	2	248	0.00	30.442 
04:10	20.6	20.6	20.6	69	12.1	1	3	248	0.00	30.442 
04:15	20.5	20.5	20.5	69	12.0	0	4	248	0.00	30.446 
04:20	20.5	20.5	20.5	69	12.0	0	3	248	0.00	30.446 
04:25	20.5	20.5	20.5	69	12.0	0	2	248	0.00	30.446 
04:30	20.5	20.5	20.5	69	12.0	0	3	248	0.00	30.441 
04:35	20.5	20.5	20.5	69	12.0	0	3	248	0.00	30.441 
04:40	20.5	20.5	20.5	68	11.6	0	2	248	0.00	30.441 
04:45	20.5	20.5	20.5	68	11.6	0	2	248	0.00	30.431 
04:50	20.5	20.5	20.5	68	11.6	0	1	248	0.00	30.431 
04:55	20.5	20.5	20.5	68	11.6	0	2	248	0.00	30.431 
05:00	20.3	20.3	20.3	68	11.5	0	2	248	0.00	30.439 
05:05	20.3	20.3	20.3	68	11.5	0	1	248	0.00	30.439 
05:10	20.3	20.3	20.3	68	11.5	0	2	248	0.00	30.439 
05:15	20.2	20.2	20.2	68	11.4	0	2	248	0.00	30.449 
05:20	20.2	20.2	20.2	68	11.4	0	1	248	0.00	30.449 
05:25	20.2	20.2	20.2	69	11.7	0	1	248	0.00	30.449 
05:30	20.0	20.0	20.0	69	11.5	0	2	248	0.00	30.446 
05:35	19.9	19.9	19.9	69	11.4	0	1	248	0.00	30.446 
05:40	19.9	19.9	19.9	69	11.4	0	1	248	0.00	30.446 
05:45	19.9	19.9	19.9	69	11.4	0	2	248	0.00	30.449 
05:50	19.9	19.9	19.9	69	11.4	0	2	248	0.00	30.449 
05:55	19.9	19.9	19.9	70	11.7	0	1	248	0.00	30.449 
06:00	20.0	20.0	20.0	70	11.8	0	2	248	0.00	30.449 
06:05	20.2	20.2	20.2	70	12.0	0	2	248	0.00	30.449 
06:10	20.2	20.2	20.2	70	12.0	0	2	248	0.00	30.449 
06:15	20.3	20.3	20.3	70	12.1	0	2	248	0.00	30.454 
06:20	20.3	20.3	20.3	70	12.1	0	3	248	0.00	30.454 
06:25	20.5	20.5	20.5	70	12.3	0	2	248	0.00	30.454 
06:30	20.3	20.3	20.3	70	12.1	0	2	248	0.00	30.458 
06:35	20.3	20.3	20.3	70	12.1	0	2	248	0.00	30.458 
06:40	20.3	20.3	20.3	70	12.1	0	2	248	0.00	30.458 
06:45	20.3	20.3	20.3	70	12.1	0	1	248	0.00	30.465 
06:50	20.3	20.3	20.3	70	12.1	0	1	248	0.00	30.465 
06:55	20.3	20.3	20.3	70	12.1	0	1	248	0.00	30.465 
07:00	20.3	20.3	20.3	71	12.4	0	1	248	0.00	30.465 
07:05	20.5	20.5	20.5	71	12.6	0	1	248	0.00	30.465 
07:10	20.5	20.5	20.5	71	12.6	0	1	248	0.00	30.465 
07:15	20.6	20.6	20.6	71	12.7	0	1	248	0.00	30.467 
07:20	20.6	20.6	20.6	71	12.7	0	1	248	0.00	30.467 
07:25	20.8	20.8	20.8	71	12.9	0	1	248	0.00	30.467 
07:30	20.8	20.8	20.8	70	12.6	0	2	248	0.00	30.470 
07:35	21.0	21.0	21.0	70	12.8	0	2	248	0.00	30.470 
07:40	21.1	21.1	21.1	70	12.9	0	1	248	0.00	30.470 
07:45	21.1	21.1	21.1	70	12.9	0	1	248	0.00	30.467 
07:50	21.1	21.1	21.1	70	12.9	0	0	---	0.00	30.467 
07:55	21.3	21.3	21.3	70	13.1	0	1	248	0.00	30.467 
08:00	21.3	21.3	21.3	71	13.4	0	0	---	0.00	30.471 
08:05	21.3	21.3	21.3	71	13.4	0	0	---	0.00	30.471 
08:10	21.4	21.4	21.4	71	13.5	0	0	---	0.00	30.471 
08:15	21.4	21.4	21.4	71	13.5	0	1	248	0.00	30.481 
08:20	21.6	21.6	21.6	71	13.7	0	1	248	0.00	30.481 
08:25	21.8	21.8	21.8	71	13.9	0	1	248	0.00	30.481 
08:30	21.9	21.9	21.9	70	13.6	0	1	248	0.00	30.479 
08:35	21.9	21.9	21.9	70	13.6	0	2	248	0.00	30.479 
08:40	22.1	22.1	22.1	70	13.8	0	2	248	0.00	30.479 
08:45	22.1	22.1	22.1	70	13.8	0	1	248	0.00	30.475 
08:50	22.2	22.2	22.2	70	13.9	0	1	248	0.00	30.475 
08:55	22.4	22.4	22.4	69	13.8	0	1	248	0.00	30.475 
09:00	22.5	22.5	22.5	69	13.9	1	4	248	0.00	30.483 
09:05	22.9	22.9	22.9	69	14.3	0	2	248	0.00	30.483 
09:10	23.2	23.2	23.2	69	14.6	0	1	248	0.00	30.483 
09:15	23.3	23.3	23.3	68	14.3	0	1	248	0.00	30.483 
09:20	23.6	23.6	23.6	68	14.6	0	2	248	0.00	30.483 
09:25	23.8	23.8	23.8	68	14.8	0	2	248	0.00	30.483 
09:30	23.9	23.9	23.9	67	14.6	0	2	248	0.00	30.485 
09:35	24.2	24.2	24.2	67	14.8	0	2	248	0.00	30.485 
09:40	24.7	24.7	24.7	66	15.0	0	1	248	0.00	30.485 
09:45	25.1	25.1	25.1	65	15.0	1	3	248	0.00	30.481 
09:50	25.4	25.4	25.4	64	14.9	1	4	248	0.00	30.481 
09:55	25.6	25.6	25.6	64	15.1	0	3	248	0.00	30.481 
10:00	25.8	25.8	25.8	64	15.3	0	1	248	0.00	30.482 
10:05	26.1	26.1	26.1	64	15.6	1	3	248	0.00	30.482 
10:10	26.4	26.4	26.4	63	15.5	1	5	248	0.00	30.482 
10:15	26.7	26.7	26.7	63	15.8	1	2	248	0.00	30.477 
10:20	27.0	27.0	27.0	63	16.1	1	5	270	0.00	30.477 
10:25	27.2	27.2	27.2	63	16.3	2	5	248	0.00	30.477 
10:30	27.2	27.2	27.2	63	16.3	1	5	248	0.00	30.471 
10:35	27.2	27.2	27.2	63	16.3	2	6	248	0.00	30.471 
10:40	27.2	27.2	27.2	63	16.3	2	5	248	0.00	30.471 
10:45	27.3	27.3	27.3	64	16.8	1	4	225	0.00	30.466 
10:50	27.5	27.5	27.5	64	16.9	1	3	248	0.00	30.466 
10:55	27.8	27.8	27.8	64	17.2	0	4	248	0.00	30.466 
11:00	28.1	28.1	28.1	64	17.5	0	2	248	0.00	30.451 
11:05	28.5	28.5	28.5	63	17.5	1	5	248	0.00	30.451 
11:10	28.8	28.8	28.8	63	17.8	1	4	248	0.00	30.451 
11:15	29.0	29.0	29.0	63	18.0	1	4	248	0.00	30.447 
11:20	29.1	29.1	29.1	63	18.1	1	3	248	0.00	30.447 
11:25	29.1	29.1	29.1	63	18.1	1	5	248	0.00	30.447 
11:30	29.0	29.0	29.0	62	17.6	1	3	248	0.00	30.442 
11:35	29.1	29.1	29.1	62	17.7	1	4	248	0.00	30.442 
11:40	29.1	29.1	29.1	63	18.1	1	5	248	0.00	30.442 
11:45	29.1	29.1	29.1	62	17.7	1	5	225	0.00	30.430 
11:50	29.3	29.3	29.3	63	18.3	1	3	248	0.00	30.430 
11:55	29.4	29.4	29.4	62	18.0	1	5	248	0.00	30.430 
12:00	29.8	29.8	29.8	63	18.8	1	5	248	0.00	30.420 
12:05	30.4	30.4	30.4	62	19.0	1	4	248	0.00	30.420 
12:10	30.9	30.9	30.9	61	19.1	1	4	248	0.00	30.420 
12:15	31.0	31.0	31.0	61	19.1	1	4	248	0.00	30.407 
12:20	31.5	31.5	31.5	60	19.2	2	7	248	0.00	30.407 
12:25	31.8	31.8	31.8	60	19.5	1	4	248	0.00	30.407 
12:30	31.9	31.9	31.9	59	19.2	2	6	248	0.00	30.388 
12:35	32.1	32.1	32.1	58	19.0	2	6	248	0.00	30.388 
12:40	32.4	32.4	32.4	58	19.3	1	5	248	0.00	30.388 
12:45	32.5	32.5	32.5	58	19.4	3	9	248	0.00	30.377 
12:50	32.7	32.7	32.7	58	19.6	1	4	248	0.00	30.377 
12:55	32.8	32.8	32.8	58	19.7	2	7	248	0.00	30.377 
13:00	32.9	32.9	32.9	58	19.8	2	9	248	0.00	30.363 
13:05	33.2	33.2	33.2	57	19.6	2	6	248	0.00	30.363 
13:10	33.5	33.5	33.5	57	19.9	1	4	248	0.00	30.363 
13:15	33.7	33.7	33.7	56	19.7	2	8	248	0.00	30.347 
13:20	33.5	33.5	33.5	56	19.5	3	10	248	0.00	30.347 
13:25	33.7	33.7	33.7	56	19.7	2	10	248	0.00	30.347 
13:30	34.1	34.1	34.1	57	20.5	2	6	248	0.00	30.340 
13:35	34.4	34.4	34.4	54	19.5	3	9	248	0.00	30.340 
13:40	34.6	34.6	34.6	55	20.1	2	8	248	0.00	30.340 
13:45	34.9	34.9	34.9	55	20.4	2	7	248	0.00	30.330 
13:50	34.9	34.9	34.9	53	19.5	2	6	248	0.00	30.330 
13:55	34.6	34.6	34.6	53	19.2	3	7	248	0.00	30.330 
14:00	34.3	34.3	34.3	53	19.0	3	10	248	0.00	30.319 
14:05	34.1	34.1	34.1	54	19.2	2	6	248	0.00	30.319 
14:10	34.1	34.1	34.1	55	19.6	1	4	270	0.00	30.319 
14:15	34.3	34.3	34.3	55	19.8	2	5	225	0.00	30.316 
14:20	34.6	34.6	34.6	55	20.1	2	5	248	0.00	30.316 
14:25	34.9	34.9	34.9	55	20.4	1	4	248	0.00	30.316 
14:30	34.9	34.9	34.9	54	20.0	2	5	270	0.00	30.303 
14:35	34.6	34.6	34.6	54	19.7	2	6	248	0.00	30.303 
14:40	34.9	34.9	34.9	55	20.4	1	4	248	0.00	30.303 
14:45	35.5	35.5	35.5	53	20.1	2	6	248	0.00	30.286 
14:50	35.6	35.6	35.6	52	19.7	2	8	248	0.00	30.286 
14:55	35.9	35.9	35.9	52	20.0	2	9	248	0.00	30.286 
15:00	36.0	36.0	36.0	52	20.1	2	6	248	0.00	30.270 
15:05	36.2	36.2	36.2	52	20.3	3	12	248	0.00	30.270 
15:10	36.2	36.2	36.2	52	20.3	2	7	248	0.00	30.270 
15:15	36.0	36.0	36.0	52	20.1	3	12	90	0.00	30.263 
15:20	36.2	36.2	36.2	51	19.8	2	6	270	0.00	30.263 
15:25	36.3	36.3	36.3	50	19.5	2	9	248	0.00	30.263 
15:30	36.3	36.3	36.3	50	19.5	3	9	270	0.00	30.252 
15:35	36.3	36.3	36.3	50	19.5	3	11	248	0.00	30.252 
15:40	36.3	36.3	36.3	50	19.5	2	10	248	0.00	30.252 
15:45	36.5	36.5	36.5	50	19.6	2	5	225	0.00	30.236 
15:50	36.6	36.6	36.6	49	19.3	2	8	248	0.00	30.236 
15:55	36.6	36.6	36.6	49	19.3	2	11	270	0.00	30.236 
16:00	36.6	36.6	36.6	50	19.7	2	6	248	0.00	30.236 
16:05	36.6	36.6	36.6	49	19.3	2	8	248	0.00	30.236 
16:10	36.6	36.6	36.6	48	18.8	2	9	248	0.00	30.236 
16:15	36.6	36.6	36.6	48	18.8	3	10	248	0.00	30.236 
16:20	36.6	36.6	36.6	49	19.3	1	5	248	0.00	30.236 
16:25	36.5	36.5	36.5	48	18.7	1	6	248	0.00	30.236 
16:30	36.5	36.5	36.5	48	18.7	3	10	248	0.00	30.225 
16:35	36.3	36.3	36.3	48	18.5	2	10	248	0.00	30.225 
16:40	36.3	36.3	36.3	48	18.5	3	9	248	0.00	30.225 
16:45	36.3	36.3	36.3	49	19.0	1	5	248	0.00	30.219 
16:50	36.2	36.2	36.2	49	18.9	2	9	248	0.00	30.219 
16:55	36.0	36.0	36.0	48	18.2	3	10	248	0.00	30.219 
17:00	35.9	35.9	35.9	48	18.1	2	7	248	0.00	30.209 
17:05	35.9	35.9	35.9	48	18.1	2	6	270	0.00	30.209 
17:10	35.8	35.8	35.8	49	18.5	2	7	248	0.00	30.209 
17:15	35.6	35.6	35.6	49	18.3	1	7	248	0.00	30.203 
17:20	35.5	35.5	35.5	49	18.3	2	7	248	0.00	30.203 
17:25	35.3	35.3	35.3	50	18.5	1	4	248	0.00	30.203 
17:30	35.2	35.2	35.2	50	18.4	1	6	248	0.00	30.194 
17:35	35.0	35.0	35.0	51	18.7	2	7	248	0.00	30.194 
17:40	34.9	34.9	34.9	51	18.6	1	4	248	0.00	30.194 
17:45	34.7	34.7	34.7	52	18.9	1	7	315	0.00	30.191 
17:50	34.7	34.7	34.7	52	18.9	2	6	270	0.00	30.191 
17:55	34.6	34.6	34.6	52	18.8	2	5	248	0.00	30.191 
18:00	34.6	34.6	34.6	53	19.2	1	4	248	0.00	30.186 
18:05	34.4	34.4	34.4	53	19.1	1	5	270	0.00	30.186 
18:10	34.4	34.4	34.4	54	19.5	2	7	248	0.00	30.186 
18:15	34.3	34.3	34.3	54	19.4	1	6	248	0.00	30.181 
18:20	34.3	34.3	34.3	55	19.8	2	7	248	0.00	30.181 
18:25	34.3	34.3	34.3	55	19.8	1	5	270	0.00	30.181 
18:30	34.3	34.3	34.3	55	19.8	2	7	68	0.00	30.174 
18:35	34.3	34.3	34.3	55	19.8	1	5	270	0.00	30.174 
18:40	34.3	34.3	34.3	56	20.3	1	5	248	0.00	30.174 
18:45	34.1	34.1	34.1	56	20.1	2	5	68	0.00	30.172 
18:50	34.1	34.1	34.1	56	20.1	1	5	225	0.00	30.172 
18:55	34.1	34.1	34.1	56	20.1	2	5	112	0.00	30.172 
19:00	34.1	34.1	34.1	56	20.1	2	9	248	0.00	30.163 
19:05	34.1	34.1	34.1	56	20.1	2	5	248	0.00	30.163 
19:10	34.1	34.1	34.1	57	20.5	2	6	270	0.00	30.163 
19:15	34.1	34.1	34.1	57	20.5	2	6	248	0.00	30.157 
19:20	34.1	34.1	34.1	57	20.5	2	4	292	0.00	30.157 
19:25	34.3	34.3	34.3	57	20.7	2	7	22	0.00	30.157 
19:30	34.3	34.3	34.3	57	20.7	1	4	248	0.00	30.146 
19:35	34.3	34.3	34.3	57	20.7	1	6	248	0.00	30.146 
19:40	34.4	34.4	34.4	57	20.8	2	7	90	0.00	30.146 
19:45	34.6	34.6	34.6	57	21.0	2	14	68	0.00	30.137 
19:50	34.6	34.6	34.6	57	21.0	2	5	248	0.00	30.137 
19:55	34.7	34.7	34.7	57	21.0	2	11	315	0.00	30.137 
20:00	34.7	34.7	34.7	57	21.0	2	5	248	0.00	30.130 
20:05	34.9	34.9	34.9	57	21.2	2	9	248	0.00	30.130 
20:10	34.9	34.9	34.9	58	21.6	2	7	248	0.00	30.130 
20:15	35.0	35.0	35.0	57	21.3	2	7	248	0.00	30.117 
20:20	35.2	35.2	35.2	57	21.5	3	10	248	0.00	30.117 
20:25	35.3	35.3	35.3	57	21.6	3	11	248	0.00	30.117 
20:30	35.5	35.5	35.5	57	21.8	3	11	248	0.00	30.108 
20:35	35.6	35.6	35.6	56	21.5	3	10	248	0.00	30.108 
20:40	35.6	35.6	35.6	56	21.5	2	6	248	0.00	30.108 
20:45	35.6	35.6	35.6	57	21.9	2	6	270	0.00	30.097 
20:50	35.8	35.8	35.8	56	21.7	2	5	248	0.00	30.097 
20:55	35.8	35.8	35.8	56	21.7	3	7	248	0.00	30.097 
21:00	35.9	35.9	35.9	56	21.8	3	9	248	0.00	30.091 
21:05	36.0	36.0	36.0	56	21.8	3	9	248	0.00	30.091 
21:10	36.2	32.9	36.2	56	22.0	4	11	248	0.00	30.091 
21:15	36.2	36.2	36.2	56	22.0	2	9	248	0.00	30.077 
21:20	36.2	36.2	36.2	55	21.6	3	10	248	0.00	30.077 
21:25	36.5	36.5	36.5	55	21.9	3	10	248	0.00	30.077 
21:30	36.5	36.5	36.5	55	21.9	3	7	248	0.00	30.078 
21:35	36.6	36.6	36.6	55	22.0	2	7	248	0.00	30.078 
21:40	36.8	36.8	36.8	54	21.7	3	10	248	0.00	30.078 
21:45	36.9	36.9	36.9	54	21.8	3	11	248	0.00	30.082 
21:50	37.2	37.2	37.2	54	22.1	3	11	248	0.00	30.082 
21:55	37.3	34.2	37.3	53	21.8	4	15	248	0.00	30.082 
22:00	37.5	37.5	37.5	53	21.9	3	10	248	0.00	30.082 
22:05	37.6	33.7	37.6	53	22.0	5	11	248	0.00	30.082 
22:10	37.6	37.6	37.6	53	22.0	3	10	248	0.00	30.082 
22:15	37.6	37.6	37.6	53	22.0	3	9	248	0.00	30.074 
22:20	37.5	37.5	37.5	54	22.4	3	9	248	0.00	30.074 
22:25	37.5	37.5	37.5	54	22.4	3	7	248	0.00	30.074 
22:30	37.5	37.5	37.5	54	22.4	3	10	248	0.00	30.069 
22:35	37.5	34.4	37.5	54	22.4	4	10	248	0.00	30.069 
22:40	37.5	37.5	37.5	54	22.4	3	14	248	0.00	30.069 
22:45	37.6	34.5	37.6	53	22.0	4	18	248	0.00	30.066 
22:50	37.6	34.5	37.6	53	22.0	4	15	248	0.00	30.066 
22:55	37.6	37.6	37.6	54	22.5	3	8	248	0.00	30.066 
23:00	37.5	37.5	37.5	54	22.4	3	11	248	0.00	30.069 
23:05	37.5	37.5	37.5	54	22.4	3	6	248	0.00	30.069 
23:10	37.5	37.5	37.5	54	22.4	3	11	248	0.00	30.069 
23:15	37.5	37.5	37.5	54	22.4	2	6	248	0.00	30.067 
23:20	37.5	37.5	37.5	54	22.4	2	7	225	0.00	30.067 
23:25	37.3	37.3	37.3	54	22.2	3	13	248	0.00	30.067 
23:30	37.3	37.3	37.3	54	22.2	3	9	248	0.00	30.063 
23:35	37.5	37.5	37.5	54	22.4	3	7	248	0.00	30.063 
23:40	37.5	37.5	37.5	54	22.4	3	10	225	0.00	30.063 
23:45	37.5	37.5	37.5	54	22.4	3	10	248	0.00	30.053 
23:50	37.3	37.3	37.3	54	22.2	3	10	248	0.00	30.053 
23:55	37.3	37.3	37.3	54	22.2	3	7	248	0.00	30.053 

CoCoRaHS
IN-AL-39
A2 Web Hosting
Creative Commons License
GoDaddy
search engine by freefind advanced

loaded 2018-11-17 12:56:36 • last modified 2010-11-18 10:43:29
Privacy PolicyDisclaimer
• wx.awcolley.com is powered by PmWiki v.2002016 •
• all content (unless otherwise noted) © 2018 A W Colley